sensor_id;sensor_type;location;lat;lon;timestamp;temperature;humidity
11035;DHT22;5571;48.110;-1.706;2023-01-28T00:01:13;4.40;99.90
11035;DHT22;5571;48.110;-1.706;2023-01-28T00:03:40;4.40;99.90
11035;DHT22;5571;48.110;-1.706;2023-01-28T00:06:12;4.40;99.90
11035;DHT22;5571;48.110;-1.706;2023-01-28T00:08:38;4.40;99.90
11035;DHT22;5571;48.110;-1.706;2023-01-28T00:11:05;4.40;99.90
11035;DHT22;5571;48.110;-1.706;2023-01-28T00:13:32;4.50;99.90
11035;DHT22;5571;48.110;-1.706;2023-01-28T00:16:00;4.50;99.90
11035;DHT22;5571;48.110;-1.706;2023-01-28T00:18:27;4.50;99.90
11035;DHT22;5571;48.110;-1.706;2023-01-28T00:21:12;4.60;99.90
11035;DHT22;5571;48.110;-1.706;2023-01-28T00:23:40;4.60;99.90
11035;DHT22;5571;48.110;-1.706;2023-01-28T00:26:11;4.60;99.90
11035;DHT22;5571;48.110;-1.706;2023-01-28T00:28:38;4.60;99.90
11035;DHT22;5571;48.110;-1.706;2023-01-28T00:33:34;4.70;99.90
11035;DHT22;5571;48.110;-1.706;2023-01-28T00:36:01;4.70;99.90
11035;DHT22;5571;48.110;-1.706;2023-01-28T00:38:27;4.70;99.90
11035;DHT22;5571;48.110;-1.706;2023-01-28T00:40:54;4.70;99.90
11035;DHT22;5571;48.110;-1.706;2023-01-28T00:43:21;4.80;99.90
11035;DHT22;5571;48.110;-1.706;2023-01-28T00:45:47;4.80;99.90
11035;DHT22;5571;48.110;-1.706;2023-01-28T00:48:14;4.80;99.90
11035;DHT22;5571;48.110;-1.706;2023-01-28T00:50:44;4.90;99.90
11035;DHT22;5571;48.110;-1.706;2023-01-28T00:53:12;4.80;99.90
11035;DHT22;5571;48.110;-1.706;2023-01-28T00:55:38;4.80;99.90
11035;DHT22;5571;48.110;-1.706;2023-01-28T00:58:05;4.90;99.90
11035;DHT22;5571;48.110;-1.706;2023-01-28T01:00:31;4.90;99.90
11035;DHT22;5571;48.110;-1.706;2023-01-28T01:02:58;4.90;99.90
11035;DHT22;5571;48.110;-1.706;2023-01-28T01:05:24;4.90;99.90
11035;DHT22;5571;48.110;-1.706;2023-01-28T01:07:50;4.90;99.90
11035;DHT22;5571;48.110;-1.706;2023-01-28T01:10:19;5.00;99.90
11035;DHT22;5571;48.110;-1.706;2023-01-28T01:12:47;5.00;99.90
11035;DHT22;5571;48.110;-1.706;2023-01-28T01:15:14;4.90;99.90
11035;DHT22;5571;48.110;-1.706;2023-01-28T01:17:44;5.00;99.90
11035;DHT22;5571;48.110;-1.706;2023-01-28T01:20:24;5.00;99.90
11035;DHT22;5571;48.110;-1.706;2023-01-28T01:22:50;5.00;99.90
11035;DHT22;5571;48.110;-1.706;2023-01-28T01:25:17;5.00;99.90
11035;DHT22;5571;48.110;-1.706;2023-01-28T01:27:44;5.00;99.90
11035;DHT22;5571;48.110;-1.706;2023-01-28T01:30:13;5.00;99.90
11035;DHT22;5571;48.110;-1.706;2023-01-28T01:32:39;5.00;99.90
11035;DHT22;5571;48.110;-1.706;2023-01-28T01:35:05;5.00;99.90
11035;DHT22;5571;48.110;-1.706;2023-01-28T01:37:33;5.00;99.90
11035;DHT22;5571;48.110;-1.706;2023-01-28T01:40:00;5.00;99.90
11035;DHT22;5571;48.110;-1.706;2023-01-28T01:42:33;5.00;99.90
11035;DHT22;5571;48.110;-1.706;2023-01-28T01:45:10;5.00;99.90
11035;DHT22;5571;48.110;-1.706;2023-01-28T01:47:59;5.00;99.90
11035;DHT22;5571;48.110;-1.706;2023-01-28T01:50:34;5.00;99.90
11035;DHT22;5571;48.110;-1.706;2023-01-28T01:53:17;5.00;99.90
11035;DHT22;5571;48.110;-1.706;2023-01-28T01:55:47;5.00;99.90
11035;DHT22;5571;48.110;-1.706;2023-01-28T01:58:17;5.00;99.90
11035;DHT22;5571;48.110;-1.706;2023-01-28T02:00:43;5.00;99.90
11035;DHT22;5571;48.110;-1.706;2023-01-28T02:03:10;5.00;99.90
11035;DHT22;5571;48.110;-1.706;2023-01-28T02:05:36;5.00;99.90
11035;DHT22;5571;48.110;-1.706;2023-01-28T02:08:03;5.00;99.90
11035;DHT22;5571;48.110;-1.706;2023-01-28T02:10:55;5.00;99.90
11035;DHT22;5571;48.110;-1.706;2023-01-28T02:13:26;5.00;99.90
11035;DHT22;5571;48.110;-1.706;2023-01-28T02:15:53;5.00;99.90
11035;DHT22;5571;48.110;-1.706;2023-01-28T02:18:19;5.00;99.90
11035;DHT22;5571;48.110;-1.706;2023-01-28T02:21:17;5.00;99.90
11035;DHT22;5571;48.110;-1.706;2023-01-28T02:31:55;5.00;99.90
11035;DHT22;5571;48.110;-1.706;2023-01-28T02:37:02;5.00;99.90
11035;DHT22;5571;48.110;-1.706;2023-01-28T02:39:35;5.00;99.90
11035;DHT22;5571;48.110;-1.706;2023-01-28T02:44:31;5.00;99.90
11035;DHT22;5571;48.110;-1.706;2023-01-28T02:46:57;5.00;99.90
11035;DHT22;5571;48.110;-1.706;2023-01-28T02:49:48;5.00;99.90
11035;DHT22;5571;48.110;-1.706;2023-01-28T02:58:31;4.90;99.90
11035;DHT22;5571;48.110;-1.706;2023-01-28T03:01:09;4.90;99.90
11035;DHT22;5571;48.110;-1.706;2023-01-28T03:06:43;4.90;99.90
11035;DHT22;5571;48.110;-1.706;2023-01-28T03:09:11;4.90;99.90
11035;DHT22;5571;48.110;-1.706;2023-01-28T03:11:55;5.00;99.90
11035;DHT22;5571;48.110;-1.706;2023-01-28T03:14:42;5.00;99.90
11035;DHT22;5571;48.110;-1.706;2023-01-28T03:20:38;4.90;99.90
11035;DHT22;5571;48.110;-1.706;2023-01-28T03:23:28;4.90;99.90
11035;DHT22;5571;48.110;-1.706;2023-01-28T03:26:15;4.90;99.90
11035;DHT22;5571;48.110;-1.706;2023-01-28T03:29:06;4.90;99.90
11035;DHT22;5571;48.110;-1.706;2023-01-28T03:31:52;4.90;99.90
11035;DHT22;5571;48.110;-1.706;2023-01-28T03:34:37;4.90;99.90
11035;DHT22;5571;48.110;-1.706;2023-01-28T03:37:22;4.80;99.90
11035;DHT22;5571;48.110;-1.706;2023-01-28T03:39:48;4.80;99.90
11035;DHT22;5571;48.110;-1.706;2023-01-28T03:42:14;4.80;99.90
11035;DHT22;5571;48.110;-1.706;2023-01-28T03:44:40;4.80;99.90
11035;DHT22;5571;48.110;-1.706;2023-01-28T03:47:21;4.80;99.90
11035;DHT22;5571;48.110;-1.706;2023-01-28T03:49:50;4.70;99.90
11035;DHT22;5571;48.110;-1.706;2023-01-28T03:52:22;4.70;99.90
11035;DHT22;5571;48.110;-1.706;2023-01-28T03:54:48;4.70;99.90
11035;DHT22;5571;48.110;-1.706;2023-01-28T03:57:18;4.70;99.90
11035;DHT22;5571;48.110;-1.706;2023-01-28T03:59:44;4.60;99.90
11035;DHT22;5571;48.110;-1.706;2023-01-28T04:02:11;4.70;99.90
11035;DHT22;5571;48.110;-1.706;2023-01-28T04:04:38;4.60;99.90
11035;DHT22;5571;48.110;-1.706;2023-01-28T04:07:05;4.60;99.90
11035;DHT22;5571;48.110;-1.706;2023-01-28T04:09:36;4.60;99.90
11035;DHT22;5571;48.110;-1.706;2023-01-28T04:12:02;4.60;99.90
11035;DHT22;5571;48.110;-1.706;2023-01-28T04:14:29;4.50;99.90
11035;DHT22;5571;48.110;-1.706;2023-01-28T04:16:55;4.60;99.90
11035;DHT22;5571;48.110;-1.706;2023-01-28T04:19:21;4.60;99.90
11035;DHT22;5571;48.110;-1.706;2023-01-28T04:21:47;4.50;99.90
11035;DHT22;5571;48.110;-1.706;2023-01-28T04:24:14;4.50;99.90
11035;DHT22;5571;48.110;-1.706;2023-01-28T04:26:40;4.50;99.90
11035;DHT22;5571;48.110;-1.706;2023-01-28T04:29:06;4.50;99.90
11035;DHT22;5571;48.110;-1.706;2023-01-28T04:31:32;4.50;99.90
11035;DHT22;5571;48.110;-1.706;2023-01-28T04:33:58;4.50;99.90
11035;DHT22;5571;48.110;-1.706;2023-01-28T04:36:25;4.50;99.90
11035;DHT22;5571;48.110;-1.706;2023-01-28T04:38:50;4.50;99.90
11035;DHT22;5571;48.110;-1.706;2023-01-28T04:41:16;4.50;99.90
11035;DHT22;5571;48.110;-1.706;2023-01-28T04:43:42;4.50;99.90
11035;DHT22;5571;48.110;-1.706;2023-01-28T04:46:08;4.50;99.90
11035;DHT22;5571;48.110;-1.706;2023-01-28T04:48:33;4.50;99.90
11035;DHT22;5571;48.110;-1.706;2023-01-28T04:51:01;4.50;99.90
11035;DHT22;5571;48.110;-1.706;2023-01-28T04:53:27;4.40;99.90
11035;DHT22;5571;48.110;-1.706;2023-01-28T04:55:53;4.50;99.90
11035;DHT22;5571;48.110;-1.706;2023-01-28T04:58:19;4.40;99.90
11035;DHT22;5571;48.110;-1.706;2023-01-28T05:00:44;4.40;99.90
11035;DHT22;5571;48.110;-1.706;2023-01-28T05:03:10;4.40;99.90
11035;DHT22;5571;48.110;-1.706;2023-01-28T05:05:35;4.40;99.90
11035;DHT22;5571;48.110;-1.706;2023-01-28T05:08:01;4.40;99.90
11035;DHT22;5571;48.110;-1.706;2023-01-28T05:10:27;4.40;99.90
11035;DHT22;5571;48.110;-1.706;2023-01-28T05:12:53;4.40;99.90
11035;DHT22;5571;48.110;-1.706;2023-01-28T05:15:19;4.40;99.90
11035;DHT22;5571;48.110;-1.706;2023-01-28T05:17:45;4.40;99.90
11035;DHT22;5571;48.110;-1.706;2023-01-28T05:20:12;4.40;99.90
11035;DHT22;5571;48.110;-1.706;2023-01-28T05:22:39;4.40;99.90
11035;DHT22;5571;48.110;-1.706;2023-01-28T05:25:06;4.40;99.90
11035;DHT22;5571;48.110;-1.706;2023-01-28T05:27:32;4.40;99.90
11035;DHT22;5571;48.110;-1.706;2023-01-28T05:29:59;4.40;99.90
11035;DHT22;5571;48.110;-1.706;2023-01-28T05:32:25;4.40;99.90
11035;DHT22;5571;48.110;-1.706;2023-01-28T05:34:51;4.40;99.90
11035;DHT22;5571;48.110;-1.706;2023-01-28T05:37:16;4.40;99.90
11035;DHT22;5571;48.110;-1.706;2023-01-28T05:39:42;4.30;99.90
11035;DHT22;5571;48.110;-1.706;2023-01-28T05:42:08;4.30;99.90
11035;DHT22;5571;48.110;-1.706;2023-01-28T05:44:33;4.30;99.90
11035;DHT22;5571;48.110;-1.706;2023-01-28T05:47:00;4.30;99.90
11035;DHT22;5571;48.110;-1.706;2023-01-28T05:49:26;4.20;99.90
11035;DHT22;5571;48.110;-1.706;2023-01-28T05:51:51;4.30;99.90
11035;DHT22;5571;48.110;-1.706;2023-01-28T05:54:17;4.20;99.90
11035;DHT22;5571;48.110;-1.706;2023-01-28T05:56:43;4.20;99.90
11035;DHT22;5571;48.110;-1.706;2023-01-28T05:59:12;4.10;99.90
11035;DHT22;5571;48.110;-1.706;2023-01-28T06:01:38;4.10;99.90
11035;DHT22;5571;48.110;-1.706;2023-01-28T06:04:03;4.10;99.90
11035;DHT22;5571;48.110;-1.706;2023-01-28T06:06:29;4.10;99.90
11035;DHT22;5571;48.110;-1.706;2023-01-28T06:08:55;4.10;99.90
11035;DHT22;5571;48.110;-1.706;2023-01-28T06:11:20;4.10;99.90
11035;DHT22;5571;48.110;-1.706;2023-01-28T06:13:46;4.00;99.90
11035;DHT22;5571;48.110;-1.706;2023-01-28T06:16:12;4.00;99.90
11035;DHT22;5571;48.110;-1.706;2023-01-28T06:18:37;4.00;99.90
11035;DHT22;5571;48.110;-1.706;2023-01-28T06:21:03;4.00;99.90
11035;DHT22;5571;48.110;-1.706;2023-01-28T06:23:29;4.00;99.90
11035;DHT22;5571;48.110;-1.706;2023-01-28T06:25:55;4.00;99.90
11035;DHT22;5571;48.110;-1.706;2023-01-28T06:28:22;4.00;99.90
11035;DHT22;5571;48.110;-1.706;2023-01-28T06:30:52;3.90;99.90
11035;DHT22;5571;48.110;-1.706;2023-01-28T06:33:18;3.90;99.90
11035;DHT22;5571;48.110;-1.706;2023-01-28T06:35:44;3.90;99.90
11035;DHT22;5571;48.110;-1.706;2023-01-28T06:38:11;3.90;99.90
11035;DHT22;5571;48.110;-1.706;2023-01-28T06:40:37;3.90;99.90
11035;DHT22;5571;48.110;-1.706;2023-01-28T06:43:04;3.90;99.90
11035;DHT22;5571;48.110;-1.706;2023-01-28T06:45:30;3.90;99.90
11035;DHT22;5571;48.110;-1.706;2023-01-28T06:47:56;3.90;99.90
11035;DHT22;5571;48.110;-1.706;2023-01-28T06:50:21;3.90;99.90
11035;DHT22;5571;48.110;-1.706;2023-01-28T06:52:47;3.90;99.90
11035;DHT22;5571;48.110;-1.706;2023-01-28T06:55:13;3.90;99.90
11035;DHT22;5571;48.110;-1.706;2023-01-28T06:57:39;3.80;99.90
11035;DHT22;5571;48.110;-1.706;2023-01-28T07:00:08;3.80;99.90
11035;DHT22;5571;48.110;-1.706;2023-01-28T07:02:35;3.80;99.90
11035;DHT22;5571;48.110;-1.706;2023-01-28T07:05:01;3.80;99.90
11035;DHT22;5571;48.110;-1.706;2023-01-28T07:07:27;3.80;99.90
11035;DHT22;5571;48.110;-1.706;2023-01-28T07:09:52;3.80;99.90
11035;DHT22;5571;48.110;-1.706;2023-01-28T07:12:18;3.80;99.90
11035;DHT22;5571;48.110;-1.706;2023-01-28T07:14:43;3.80;99.90
11035;DHT22;5571;48.110;-1.706;2023-01-28T07:17:09;3.80;99.90
11035;DHT22;5571;48.110;-1.706;2023-01-28T07:19:35;3.80;99.90
11035;DHT22;5571;48.110;-1.706;2023-01-28T07:22:00;3.80;99.90
11035;DHT22;5571;48.110;-1.706;2023-01-28T07:24:28;3.90;99.90
11035;DHT22;5571;48.110;-1.706;2023-01-28T07:26:53;3.90;99.90
11035;DHT22;5571;48.110;-1.706;2023-01-28T07:29:19;3.90;99.90
11035;DHT22;5571;48.110;-1.706;2023-01-28T07:31:45;3.90;99.90
11035;DHT22;5571;48.110;-1.706;2023-01-28T07:34:11;3.90;99.90
11035;DHT22;5571;48.110;-1.706;2023-01-28T07:36:36;3.90;99.90
11035;DHT22;5571;48.110;-1.706;2023-01-28T07:39:02;3.90;99.90
11035;DHT22;5571;48.110;-1.706;2023-01-28T07:41:28;3.90;99.90
11035;DHT22;5571;48.110;-1.706;2023-01-28T07:43:53;3.90;99.90
11035;DHT22;5571;48.110;-1.706;2023-01-28T07:46:19;3.90;99.90
11035;DHT22;5571;48.110;-1.706;2023-01-28T07:48:45;3.90;99.90
11035;DHT22;5571;48.110;-1.706;2023-01-28T07:51:11;4.00;99.90
11035;DHT22;5571;48.110;-1.706;2023-01-28T07:53:36;4.00;99.90
11035;DHT22;5571;48.110;-1.706;2023-01-28T07:56:02;4.00;99.90
11035;DHT22;5571;48.110;-1.706;2023-01-28T07:58:29;4.00;99.90
11035;DHT22;5571;48.110;-1.706;2023-01-28T08:00:56;4.00;99.90
11035;DHT22;5571;48.110;-1.706;2023-01-28T08:03:23;4.00;99.90
11035;DHT22;5571;48.110;-1.706;2023-01-28T08:05:51;4.10;99.90
11035;DHT22;5571;48.110;-1.706;2023-01-28T08:08:18;4.00;99.90
11035;DHT22;5571;48.110;-1.706;2023-01-28T08:10:44;4.00;99.90
11035;DHT22;5571;48.110;-1.706;2023-01-28T08:13:11;4.00;99.90
11035;DHT22;5571;48.110;-1.706;2023-01-28T08:15:38;4.10;99.90
11035;DHT22;5571;48.110;-1.706;2023-01-28T08:18:05;4.10;99.90
11035;DHT22;5571;48.110;-1.706;2023-01-28T08:20:31;4.10;99.90
11035;DHT22;5571;48.110;-1.706;2023-01-28T08:23:15;4.00;99.90
11035;DHT22;5571;48.110;-1.706;2023-01-28T08:25:40;4.00;99.90
11035;DHT22;5571;48.110;-1.706;2023-01-28T08:28:06;4.00;99.90
11035;DHT22;5571;48.110;-1.706;2023-01-28T08:30:33;4.00;99.90
11035;DHT22;5571;48.110;-1.706;2023-01-28T08:32:59;4.00;99.90
11035;DHT22;5571;48.110;-1.706;2023-01-28T08:35:26;4.00;99.90
11035;DHT22;5571;48.110;-1.706;2023-01-28T08:37:52;4.00;99.90
11035;DHT22;5571;48.110;-1.706;2023-01-28T08:40:18;4.00;99.90
11035;DHT22;5571;48.110;-1.706;2023-01-28T08:42:49;4.10;99.90
11035;DHT22;5571;48.110;-1.706;2023-01-28T08:45:15;4.10;99.90
11035;DHT22;5571;48.110;-1.706;2023-01-28T08:47:52;4.30;99.90
11035;DHT22;5571;48.110;-1.706;2023-01-28T08:50:18;4.30;99.90
11035;DHT22;5571;48.110;-1.706;2023-01-28T08:52:46;4.30;99.90
11035;DHT22;5571;48.110;-1.706;2023-01-28T08:55:12;4.40;99.90
11035;DHT22;5571;48.110;-1.706;2023-01-28T08:57:38;4.40;99.90
11035;DHT22;5571;48.110;-1.706;2023-01-28T09:00:05;4.40;99.90
11035;DHT22;5571;48.110;-1.706;2023-01-28T09:02:32;4.50;99.90
11035;DHT22;5571;48.110;-1.706;2023-01-28T09:04:57;4.60;99.90
11035;DHT22;5571;48.110;-1.706;2023-01-28T09:07:23;4.70;99.90
11035;DHT22;5571;48.110;-1.706;2023-01-28T09:09:49;4.80;99.90
11035;DHT22;5571;48.110;-1.706;2023-01-28T09:12:14;4.80;99.90
11035;DHT22;5571;48.110;-1.706;2023-01-28T09:14:41;4.80;99.90
11035;DHT22;5571;48.110;-1.706;2023-01-28T09:17:07;4.90;99.90
11035;DHT22;5571;48.110;-1.706;2023-01-28T09:19:32;5.00;99.90
11035;DHT22;5571;48.110;-1.706;2023-01-28T09:21:58;5.00;99.90
11035;DHT22;5571;48.110;-1.706;2023-01-28T09:24:24;5.10;99.90
11035;DHT22;5571;48.110;-1.706;2023-01-28T09:26:50;5.10;99.90
11035;DHT22;5571;48.110;-1.706;2023-01-28T09:29:15;5.20;99.90
11035;DHT22;5571;48.110;-1.706;2023-01-28T09:31:41;5.30;99.90
11035;DHT22;5571;48.110;-1.706;2023-01-28T09:34:08;5.40;99.90
11035;DHT22;5571;48.110;-1.706;2023-01-28T09:36:34;5.50;99.90
11035;DHT22;5571;48.110;-1.706;2023-01-28T09:39:00;5.50;99.90
11035;DHT22;5571;48.110;-1.706;2023-01-28T09:44:20;5.50;99.90
11035;DHT22;5571;48.110;-1.706;2023-01-28T09:46:49;5.60;99.90
11035;DHT22;5571;48.110;-1.706;2023-01-28T09:49:36;5.80;99.90
11035;DHT22;5571;48.110;-1.706;2023-01-28T09:52:03;5.90;99.90
11035;DHT22;5571;48.110;-1.706;2023-01-28T09:54:33;6.10;99.90
11035;DHT22;5571;48.110;-1.706;2023-01-28T09:57:56;6.20;99.90
11035;DHT22;5571;48.110;-1.706;2023-01-28T09:59:57;6.10;99.90
11035;DHT22;5571;48.110;-1.706;2023-01-28T10:10:18;6.30;99.90
11035;DHT22;5571;48.110;-1.706;2023-01-28T10:18:12;6.00;99.90
11035;DHT22;5571;48.110;-1.706;2023-01-28T10:20:52;5.90;99.90
11035;DHT22;5571;48.110;-1.706;2023-01-28T10:23:35;5.90;99.90
11035;DHT22;5571;48.110;-1.706;2023-01-28T10:26:14;5.90;99.90
11035;DHT22;5571;48.110;-1.706;2023-01-28T10:28:41;5.90;99.90
11035;DHT22;5571;48.110;-1.706;2023-01-28T10:31:11;5.80;99.90
11035;DHT22;5571;48.110;-1.706;2023-01-28T10:33:38;5.80;99.90
11035;DHT22;5571;48.110;-1.706;2023-01-28T10:36:05;5.80;99.90
11035;DHT22;5571;48.110;-1.706;2023-01-28T10:38:31;5.80;99.90
11035;DHT22;5571;48.110;-1.706;2023-01-28T10:41:00;5.80;99.90
11035;DHT22;5571;48.110;-1.706;2023-01-28T10:43:30;5.90;99.90
11035;DHT22;5571;48.110;-1.706;2023-01-28T10:48:31;6.00;99.90
11035;DHT22;5571;48.110;-1.706;2023-01-28T10:51:00;6.00;99.90
11035;DHT22;5571;48.110;-1.706;2023-01-28T10:53:36;6.10;99.90
11035;DHT22;5571;48.110;-1.706;2023-01-28T10:56:04;6.20;99.90
11035;DHT22;5571;48.110;-1.706;2023-01-28T10:58:32;6.10;99.90
11035;DHT22;5571;48.110;-1.706;2023-01-28T11:01:01;6.20;99.90
11035;DHT22;5571;48.110;-1.706;2023-01-28T11:03:28;6.10;99.90
11035;DHT22;5571;48.110;-1.706;2023-01-28T11:05:56;6.10;99.90
11035;DHT22;5571;48.110;-1.706;2023-01-28T11:08:24;6.10;99.90
11035;DHT22;5571;48.110;-1.706;2023-01-28T11:10:51;6.10;99.90
11035;DHT22;5571;48.110;-1.706;2023-01-28T11:13:25;6.10;99.90
11035;DHT22;5571;48.110;-1.706;2023-01-28T11:16:17;6.00;99.90
11035;DHT22;5571;48.110;-1.706;2023-01-28T11:18:57;6.00;99.90
11035;DHT22;5571;48.110;-1.706;2023-01-28T11:21:27;6.00;99.90
11035;DHT22;5571;48.110;-1.706;2023-01-28T11:23:54;6.00;99.90
11035;DHT22;5571;48.110;-1.706;2023-01-28T11:26:24;6.00;99.90
11035;DHT22;5571;48.110;-1.706;2023-01-28T11:28:51;6.00;99.90
11035;DHT22;5571;48.110;-1.706;2023-01-28T11:31:18;6.00;99.90
11035;DHT22;5571;48.110;-1.706;2023-01-28T11:33:55;6.00;99.90
11035;DHT22;5571;48.110;-1.706;2023-01-28T11:36:32;6.10;99.90
11035;DHT22;5571;48.110;-1.706;2023-01-28T11:39:13;6.10;99.90
11035;DHT22;5571;48.110;-1.706;2023-01-28T11:41:40;6.00;99.90
11035;DHT22;5571;48.110;-1.706;2023-01-28T12:09:43;6.20;99.90
11035;DHT22;5571;48.110;-1.706;2023-01-28T12:40:50;7.30;99.90
11035;DHT22;5571;48.110;-1.706;2023-01-28T12:43:40;7.80;99.90
11035;DHT22;5571;48.110;-1.706;2023-01-28T12:52:06;8.70;99.90
11035;DHT22;5571;48.110;-1.706;2023-01-28T12:55:11;8.40;99.90
11035;DHT22;5571;48.110;-1.706;2023-01-28T12:57:39;8.10;99.90
11035;DHT22;5571;48.110;-1.706;2023-01-28T13:00:23;7.80;99.90
11035;DHT22;5571;48.110;-1.706;2023-01-28T13:03:46;7.50;99.90
11035;DHT22;5571;48.110;-1.706;2023-01-28T13:06:43;7.40;99.90
11035;DHT22;5571;48.110;-1.706;2023-01-28T13:09:20;7.20;99.90
11035;DHT22;5571;48.110;-1.706;2023-01-28T13:11:49;7.00;99.90
11035;DHT22;5571;48.110;-1.706;2023-01-28T13:14:16;6.90;99.90
11035;DHT22;5571;48.110;-1.706;2023-01-28T13:16:42;6.80;99.90
11035;DHT22;5571;48.110;-1.706;2023-01-28T13:19:22;6.70;99.90
11035;DHT22;5571;48.110;-1.706;2023-01-28T13:21:48;6.60;99.90
11035;DHT22;5571;48.110;-1.706;2023-01-28T13:26:47;6.50;99.90
11035;DHT22;5571;48.110;-1.706;2023-01-28T13:31:41;6.50;99.90
11035;DHT22;5571;48.110;-1.706;2023-01-28T13:34:24;6.50;99.90
11035;DHT22;5571;48.110;-1.706;2023-01-28T13:36:50;6.60;99.90
11035;DHT22;5571;48.110;-1.706;2023-01-28T13:46:45;6.60;99.90
11035;DHT22;5571;48.110;-1.706;2023-01-28T13:49:17;6.60;99.90
11035;DHT22;5571;48.110;-1.706;2023-01-28T13:55:12;6.50;99.90
11035;DHT22;5571;48.110;-1.706;2023-01-28T14:14:41;6.40;99.90
11035;DHT22;5571;48.110;-1.706;2023-01-28T14:19:56;6.40;99.90
11035;DHT22;5571;48.110;-1.706;2023-01-28T14:22:22;6.50;99.90
11035;DHT22;5571;48.110;-1.706;2023-01-28T14:24:49;6.50;99.90
11035;DHT22;5571;48.110;-1.706;2023-01-28T14:27:21;6.60;99.90
11035;DHT22;5571;48.110;-1.706;2023-01-28T14:32:56;6.70;99.90
11035;DHT22;5571;48.110;-1.706;2023-01-28T14:35:28;6.70;99.90
11035;DHT22;5571;48.110;-1.706;2023-01-28T14:37:54;6.70;99.90
11035;DHT22;5571;48.110;-1.706;2023-01-28T14:40:21;6.60;99.90
11035;DHT22;5571;48.110;-1.706;2023-01-28T14:42:49;6.60;99.90
11035;DHT22;5571;48.110;-1.706;2023-01-28T14:48:42;6.50;99.90
11035;DHT22;5571;48.110;-1.706;2023-01-28T14:51:22;6.50;99.90
11035;DHT22;5571;48.110;-1.706;2023-01-28T14:59:41;6.50;99.90
11035;DHT22;5571;48.110;-1.706;2023-01-28T15:02:16;6.50;99.90
11035;DHT22;5571;48.110;-1.706;2023-01-28T15:04:42;6.40;99.90
11035;DHT22;5571;48.110;-1.706;2023-01-28T15:07:17;6.50;99.90
11035;DHT22;5571;48.110;-1.706;2023-01-28T15:09:43;6.30;99.90
11035;DHT22;5571;48.110;-1.706;2023-01-28T15:12:09;6.40;99.90
11035;DHT22;5571;48.110;-1.706;2023-01-28T15:14:35;6.40;99.90
11035;DHT22;5571;48.110;-1.706;2023-01-28T15:17:02;6.40;99.90
11035;DHT22;5571;48.110;-1.706;2023-01-28T15:19:33;6.40;99.90
11035;DHT22;5571;48.110;-1.706;2023-01-28T15:22:05;6.40;99.90
11035;DHT22;5571;48.110;-1.706;2023-01-28T15:24:33;6.40;99.90
11035;DHT22;5571;48.110;-1.706;2023-01-28T15:27:00;6.40;99.90
11035;DHT22;5571;48.110;-1.706;2023-01-28T15:29:34;6.40;99.90
11035;DHT22;5571;48.110;-1.706;2023-01-28T15:32:02;6.30;99.90
11035;DHT22;5571;48.110;-1.706;2023-01-28T15:34:28;6.30;99.90
11035;DHT22;5571;48.110;-1.706;2023-01-28T15:36:58;6.30;99.90
11035;DHT22;5571;48.110;-1.706;2023-01-28T15:39:26;6.30;99.90
11035;DHT22;5571;48.110;-1.706;2023-01-28T15:42:00;6.30;99.90
11035;DHT22;5571;48.110;-1.706;2023-01-28T15:46:59;6.20;99.90
11035;DHT22;5571;48.110;-1.706;2023-01-28T15:49:34;6.20;99.90
11035;DHT22;5571;48.110;-1.706;2023-01-28T15:52:01;6.20;99.90
11035;DHT22;5571;48.110;-1.706;2023-01-28T15:54:27;6.20;99.90
11035;DHT22;5571;48.110;-1.706;2023-01-28T15:56:54;6.20;99.90
11035;DHT22;5571;48.110;-1.706;2023-01-28T15:59:27;6.20;99.90
11035;DHT22;5571;48.110;-1.706;2023-01-28T16:05:05;6.20;99.90
11035;DHT22;5571;48.110;-1.706;2023-01-28T16:07:43;6.20;99.90
11035;DHT22;5571;48.110;-1.706;2023-01-28T16:10:29;6.20;99.90
11035;DHT22;5571;48.110;-1.706;2023-01-28T16:13:04;6.20;99.90
11035;DHT22;5571;48.110;-1.706;2023-01-28T16:15:31;6.20;99.90
11035;DHT22;5571;48.110;-1.706;2023-01-28T16:17:57;6.10;99.90
11035;DHT22;5571;48.110;-1.706;2023-01-28T16:20:25;6.10;99.90
11035;DHT22;5571;48.110;-1.706;2023-01-28T16:22:55;6.10;99.90
11035;DHT22;5571;48.110;-1.706;2023-01-28T16:25:29;6.10;99.90
11035;DHT22;5571;48.110;-1.706;2023-01-28T16:27:56;6.10;99.90
11035;DHT22;5571;48.110;-1.706;2023-01-28T16:30:22;6.00;99.90
11035;DHT22;5571;48.110;-1.706;2023-01-28T16:32:48;6.00;99.90
11035;DHT22;5571;48.110;-1.706;2023-01-28T16:35:22;6.00;99.90
11035;DHT22;5571;48.110;-1.706;2023-01-28T16:37:49;6.00;99.90
11035;DHT22;5571;48.110;-1.706;2023-01-28T16:40:18;6.00;99.90
11035;DHT22;5571;48.110;-1.706;2023-01-28T16:42:44;6.00;99.90
11035;DHT22;5571;48.110;-1.706;2023-01-28T16:47:41;6.00;99.90
11035;DHT22;5571;48.110;-1.706;2023-01-28T16:50:07;6.00;99.90
11035;DHT22;5571;48.110;-1.706;2023-01-28T16:52:33;6.00;99.90
11035;DHT22;5571;48.110;-1.706;2023-01-28T16:54:59;5.90;99.90
11035;DHT22;5571;48.110;-1.706;2023-01-28T16:57:24;6.00;99.90
11035;DHT22;5571;48.110;-1.706;2023-01-28T16:59:50;5.90;99.90
11035;DHT22;5571;48.110;-1.706;2023-01-28T17:02:15;5.90;99.90
11035;DHT22;5571;48.110;-1.706;2023-01-28T17:04:42;5.90;99.90
11035;DHT22;5571;48.110;-1.706;2023-01-28T17:07:08;5.90;99.90
11035;DHT22;5571;48.110;-1.706;2023-01-28T17:09:33;5.90;99.90
11035;DHT22;5571;48.110;-1.706;2023-01-28T17:12:01;5.90;99.90
11035;DHT22;5571;48.110;-1.706;2023-01-28T17:14:27;5.90;99.90
11035;DHT22;5571;48.110;-1.706;2023-01-28T17:16:52;5.90;99.90
11035;DHT22;5571;48.110;-1.706;2023-01-28T17:19:18;5.90;99.90
11035;DHT22;5571;48.110;-1.706;2023-01-28T17:21:44;5.90;99.90
11035;DHT22;5571;48.110;-1.706;2023-01-28T17:24:09;5.90;99.90
11035;DHT22;5571;48.110;-1.706;2023-01-28T17:26:36;5.90;99.90
11035;DHT22;5571;48.110;-1.706;2023-01-28T17:29:06;5.90;99.90
11035;DHT22;5571;48.110;-1.706;2023-01-28T17:31:32;5.90;99.90
11035;DHT22;5571;48.110;-1.706;2023-01-28T17:33:58;5.80;99.90
11035;DHT22;5571;48.110;-1.706;2023-01-28T17:36:24;5.90;99.90
11035;DHT22;5571;48.110;-1.706;2023-01-28T17:38:50;5.90;99.90
11035;DHT22;5571;48.110;-1.706;2023-01-28T17:41:16;5.80;99.90
11035;DHT22;5571;48.110;-1.706;2023-01-28T17:43:43;5.80;99.90
11035;DHT22;5571;48.110;-1.706;2023-01-28T17:46:13;5.80;99.90
11035;DHT22;5571;48.110;-1.706;2023-01-28T17:48:39;5.80;99.90
11035;DHT22;5571;48.110;-1.706;2023-01-28T17:51:05;5.80;99.90
11035;DHT22;5571;48.110;-1.706;2023-01-28T17:53:31;5.80;99.90
11035;DHT22;5571;48.110;-1.706;2023-01-28T17:55:57;5.80;99.90
11035;DHT22;5571;48.110;-1.706;2023-01-28T17:58:22;5.80;99.90
11035;DHT22;5571;48.110;-1.706;2023-01-28T18:00:48;5.80;99.90
11035;DHT22;5571;48.110;-1.706;2023-01-28T18:03:14;5.80;99.90
11035;DHT22;5571;48.110;-1.706;2023-01-28T18:05:41;5.80;99.90
11035;DHT22;5571;48.110;-1.706;2023-01-28T18:08:07;5.80;99.90
11035;DHT22;5571;48.110;-1.706;2023-01-28T18:10:33;5.80;99.90
11035;DHT22;5571;48.110;-1.706;2023-01-28T18:12:59;5.80;99.90
11035;DHT22;5571;48.110;-1.706;2023-01-28T18:15:25;5.80;99.90
11035;DHT22;5571;48.110;-1.706;2023-01-28T18:17:51;5.80;99.90
11035;DHT22;5571;48.110;-1.706;2023-01-28T18:20:17;5.80;99.90
11035;DHT22;5571;48.110;-1.706;2023-01-28T18:22:43;5.70;99.90
11035;DHT22;5571;48.110;-1.706;2023-01-28T18:25:16;5.80;99.90
11035;DHT22;5571;48.110;-1.706;2023-01-28T18:27:43;5.80;99.90
11035;DHT22;5571;48.110;-1.706;2023-01-28T18:30:09;5.70;99.90
11035;DHT22;5571;48.110;-1.706;2023-01-28T18:32:35;5.70;99.90
11035;DHT22;5571;48.110;-1.706;2023-01-28T18:35:01;5.70;99.90
11035;DHT22;5571;48.110;-1.706;2023-01-28T18:37:27;5.80;99.90
11035;DHT22;5571;48.110;-1.706;2023-01-28T18:39:53;5.70;99.90